sensor_id;sensor_type;location;lat;lon;timestamp;P1;durP1;ratioP1;P2;durP2;ratioP2
46597;SDS011;32318;48.858;8.252;2023-06-19T00:01:53;15.45;;;7.28;;
46597;SDS011;32318;48.858;8.252;2023-06-19T00:09:53;11.98;;;5.47;;
46597;SDS011;32318;48.858;8.252;2023-06-19T00:17:53;15.48;;;4.60;;
46597;SDS011;32318;48.858;8.252;2023-06-19T00:25:54;18.98;;;4.40;;
46597;SDS011;32318;48.858;8.252;2023-06-19T00:33:54;7.05;;;3.10;;
46597;SDS011;32318;48.858;8.252;2023-06-19T00:41:55;11.43;;;4.00;;
46597;SDS011;32318;48.858;8.252;2023-06-19T00:49:56;6.03;;;3.30;;
46597;SDS011;32318;48.858;8.252;2023-06-19T00:57:56;8.23;;;3.58;;
46597;SDS011;32318;48.858;8.252;2023-06-19T01:05:56;8.15;;;3.70;;
46597;SDS011;32318;48.858;8.252;2023-06-19T01:14:06;11.02;;;3.38;;
46597;SDS011;32318;48.858;8.252;2023-06-19T01:30:28;11.10;;;2.80;;
46597;SDS011;32318;48.858;8.252;2023-06-19T01:38:28;5.97;;;3.13;;
46597;SDS011;32318;48.858;8.252;2023-06-19T01:46:31;7.10;;;2.90;;
46597;SDS011;32318;48.858;8.252;2023-06-19T01:54:31;4.35;;;2.75;;
46597;SDS011;32318;48.858;8.252;2023-06-19T02:02:31;4.40;;;2.88;;
46597;SDS011;32318;48.858;8.252;2023-06-19T02:10:32;10.05;;;3.30;;
46597;SDS011;32318;48.858;8.252;2023-06-19T02:18:32;5.78;;;3.00;;
46597;SDS011;32318;48.858;8.252;2023-06-19T02:26:33;5.43;;;3.20;;
46597;SDS011;32318;48.858;8.252;2023-06-19T02:34:33;5.75;;;3.05;;
46597;SDS011;32318;48.858;8.252;2023-06-19T02:42:33;6.63;;;3.22;;
46597;SDS011;32318;48.858;8.252;2023-06-19T02:50:34;5.97;;;3.42;;
46597;SDS011;32318;48.858;8.252;2023-06-19T02:58:34;8.70;;;3.03;;
46597;SDS011;32318;48.858;8.252;2023-06-19T03:06:34;5.47;;;3.28;;
46597;SDS011;32318;48.858;8.252;2023-06-19T03:14:39;5.97;;;2.77;;
46597;SDS011;32318;48.858;8.252;2023-06-19T03:22:40;5.32;;;3.10;;
46597;SDS011;32318;48.858;8.252;2023-06-19T03:30:41;5.22;;;3.00;;
46597;SDS011;32318;48.858;8.252;2023-06-19T03:38:41;5.38;;;2.80;;
46597;SDS011;32318;48.858;8.252;2023-06-19T03:46:41;5.05;;;2.90;;
46597;SDS011;32318;48.858;8.252;2023-06-19T03:54:42;5.55;;;3.08;;
46597;SDS011;32318;48.858;8.252;2023-06-19T04:02:42;5.15;;;2.90;;
46597;SDS011;32318;48.858;8.252;2023-06-19T04:10:43;4.35;;;2.53;;
46597;SDS011;32318;48.858;8.252;2023-06-19T04:18:43;6.97;;;2.53;;
46597;SDS011;32318;48.858;8.252;2023-06-19T04:26:44;5.28;;;2.67;;
46597;SDS011;32318;48.858;8.252;2023-06-19T04:34:44;6.45;;;3.33;;
46597;SDS011;32318;48.858;8.252;2023-06-19T04:42:47;4.63;;;2.83;;
46597;SDS011;32318;48.858;8.252;2023-06-19T04:50:47;4.88;;;2.67;;
46597;SDS011;32318;48.858;8.252;2023-06-19T04:58:47;5.57;;;2.30;;
46597;SDS011;32318;48.858;8.252;2023-06-19T05:06:49;4.55;;;2.63;;
46597;SDS011;32318;48.858;8.252;2023-06-19T05:14:51;6.13;;;3.03;;
46597;SDS011;32318;48.858;8.252;2023-06-19T05:22:51;5.40;;;3.20;;
46597;SDS011;32318;48.858;8.252;2023-06-19T05:30:52;8.60;;;2.83;;
46597;SDS011;32318;48.858;8.252;2023-06-19T05:38:52;7.18;;;3.10;;
46597;SDS011;32318;48.858;8.252;2023-06-19T05:46:52;8.45;;;2.90;;
46597;SDS011;32318;48.858;8.252;2023-06-19T05:54:53;5.57;;;3.10;;
46597;SDS011;32318;48.858;8.252;2023-06-19T06:02:53;5.60;;;3.40;;
46597;SDS011;32318;48.858;8.252;2023-06-19T06:10:53;6.82;;;3.60;;
46597;SDS011;32318;48.858;8.252;2023-06-19T06:18:54;6.20;;;2.90;;
46597;SDS011;32318;48.858;8.252;2023-06-19T06:26:54;7.57;;;2.65;;
46597;SDS011;32318;48.858;8.252;2023-06-19T06:34:54;12.20;;;3.73;;
46597;SDS011;32318;48.858;8.252;2023-06-19T06:42:55;4.05;;;2.38;;
46597;SDS011;32318;48.858;8.252;2023-06-19T06:50:55;4.72;;;2.40;;
46597;SDS011;32318;48.858;8.252;2023-06-19T06:59:01;3.30;;;2.15;;
46597;SDS011;32318;48.858;8.252;2023-06-19T07:07:01;6.30;;;2.42;;
46597;SDS011;32318;48.858;8.252;2023-06-19T07:15:03;6.25;;;2.40;;
46597;SDS011;32318;48.858;8.252;2023-06-19T07:23:04;5.37;;;2.80;;
46597;SDS011;32318;48.858;8.252;2023-06-19T07:31:04;5.93;;;2.50;;
46597;SDS011;32318;48.858;8.252;2023-06-19T07:39:05;6.90;;;3.13;;
46597;SDS011;32318;48.858;8.252;2023-06-19T07:47:05;5.28;;;3.13;;
46597;SDS011;32318;48.858;8.252;2023-06-19T07:55:06;7.45;;;3.67;;
46597;SDS011;32318;48.858;8.252;2023-06-19T08:03:07;6.03;;;3.63;;
46597;SDS011;32318;48.858;8.252;2023-06-19T08:11:07;8.95;;;3.20;;
46597;SDS011;32318;48.858;8.252;2023-06-19T08:19:07;8.75;;;3.30;;
46597;SDS011;32318;48.858;8.252;2023-06-19T08:27:08;6.53;;;3.58;;
46597;SDS011;32318;48.858;8.252;2023-06-19T08:35:08;6.68;;;3.40;;
46597;SDS011;32318;48.858;8.252;2023-06-19T08:43:08;6.90;;;3.38;;
46597;SDS011;32318;48.858;8.252;2023-06-19T08:51:11;6.18;;;3.92;;
46597;SDS011;32318;48.858;8.252;2023-06-19T09:07:15;6.85;;;3.95;;
46597;SDS011;32318;48.858;8.252;2023-06-19T09:15:15;8.10;;;4.22;;
46597;SDS011;32318;48.858;8.252;2023-06-19T09:23:16;6.18;;;4.20;;
46597;SDS011;32318;48.858;8.252;2023-06-19T09:31:17;6.03;;;3.85;;
46597;SDS011;32318;48.858;8.252;2023-06-19T09:39:17;5.97;;;3.83;;
46597;SDS011;32318;48.858;8.252;2023-06-19T09:47:21;4.35;;;3.53;;
46597;SDS011;32318;48.858;8.252;2023-06-19T09:55:24;6.60;;;3.95;;
46597;SDS011;32318;48.858;8.252;2023-06-19T10:03:32;5.23;;;3.60;;
46597;SDS011;32318;48.858;8.252;2023-06-19T10:19:50;7.82;;;4.10;;
46597;SDS011;32318;48.858;8.252;2023-06-19T10:35:52;5.57;;;3.80;;
46597;SDS011;32318;48.858;8.252;2023-06-19T10:43:56;7.63;;;3.85;;
46597;SDS011;32318;48.858;8.252;2023-06-19T10:51:59;9.10;;;3.55;;
46597;SDS011;32318;48.858;8.252;2023-06-19T10:59:59;6.88;;;3.90;;
46597;SDS011;32318;48.858;8.252;2023-06-19T11:07:59;5.68;;;3.20;;
46597;SDS011;32318;48.858;8.252;2023-06-19T11:16:00;7.90;;;3.88;;
46597;SDS011;32318;48.858;8.252;2023-06-19T11:24:00;7.07;;;3.90;;
46597;SDS011;32318;48.858;8.252;2023-06-19T11:32:14;8.02;;;3.50;;
46597;SDS011;32318;48.858;8.252;2023-06-19T11:40:17;4.75;;;3.42;;
46597;SDS011;32318;48.858;8.252;2023-06-19T11:48:25;12.20;;;3.63;;
46597;SDS011;32318;48.858;8.252;2023-06-19T11:56:25;6.28;;;3.58;;
46597;SDS011;32318;48.858;8.252;2023-06-19T12:04:26;13.90;;;3.63;;
46597;SDS011;32318;48.858;8.252;2023-06-19T12:12:26;5.93;;;3.30;;
46597;SDS011;32318;48.858;8.252;2023-06-19T12:20:26;12.20;;;3.50;;
46597;SDS011;32318;48.858;8.252;2023-06-19T12:28:27;8.17;;;3.37;;
46597;SDS011;32318;48.858;8.252;2023-06-19T12:36:27;6.90;;;3.47;;
46597;SDS011;32318;48.858;8.252;2023-06-19T12:44:28;5.63;;;3.63;;
46597;SDS011;32318;48.858;8.252;2023-06-19T12:52:28;6.00;;;3.90;;
46597;SDS011;32318;48.858;8.252;2023-06-19T13:00:30;6.88;;;4.00;;
46597;SDS011;32318;48.858;8.252;2023-06-19T13:08:30;8.80;;;3.10;;
46597;SDS011;32318;48.858;8.252;2023-06-19T13:16:31;9.43;;;3.75;;
46597;SDS011;32318;48.858;8.252;2023-06-19T13:24:31;4.93;;;3.53;;
46597;SDS011;32318;48.858;8.252;2023-06-19T13:32:32;8.77;;;3.60;;
46597;SDS011;32318;48.858;8.252;2023-06-19T13:40:32;7.53;;;3.42;;
46597;SDS011;32318;48.858;8.252;2023-06-19T13:48:32;5.15;;;3.38;;
46597;SDS011;32318;48.858;8.252;2023-06-19T13:56:32;5.65;;;3.22;;
46597;SDS011;32318;48.858;8.252;2023-06-19T14:04:33;7.30;;;3.75;;
46597;SDS011;32318;48.858;8.252;2023-06-19T14:12:33;4.70;;;3.45;;
46597;SDS011;32318;48.858;8.252;2023-06-19T14:20:33;8.82;;;4.05;;
46597;SDS011;32318;48.858;8.252;2023-06-19T14:28:33;5.60;;;3.63;;
46597;SDS011;32318;48.858;8.252;2023-06-19T14:36:34;6.25;;;3.70;;
46597;SDS011;32318;48.858;8.252;2023-06-19T14:44:34;4.60;;;3.22;;
46597;SDS011;32318;48.858;8.252;2023-06-19T14:52:34;6.95;;;3.55;;
46597;SDS011;32318;48.858;8.252;2023-06-19T15:00:35;7.00;;;3.63;;
46597;SDS011;32318;48.858;8.252;2023-06-19T15:08:38;7.85;;;3.38;;
46597;SDS011;32318;48.858;8.252;2023-06-19T15:16:39;5.93;;;3.67;;
46597;SDS011;32318;48.858;8.252;2023-06-19T15:24:39;7.95;;;3.40;;
46597;SDS011;32318;48.858;8.252;2023-06-19T15:32:39;7.75;;;3.30;;
46597;SDS011;32318;48.858;8.252;2023-06-19T15:40:39;5.20;;;3.42;;
46597;SDS011;32318;48.858;8.252;2023-06-19T15:48:40;15.35;;;3.70;;
46597;SDS011;32318;48.858;8.252;2023-06-19T15:56:40;4.13;;;3.20;;
46597;SDS011;32318;48.858;8.252;2023-06-19T16:04:42;7.45;;;3.50;;
46597;SDS011;32318;48.858;8.252;2023-06-19T16:12:42;6.90;;;3.58;;
46597;SDS011;32318;48.858;8.252;2023-06-19T16:20:43;8.47;;;3.43;;
46597;SDS011;32318;48.858;8.252;2023-06-19T16:28:43;7.25;;;3.92;;
46597;SDS011;32318;48.858;8.252;2023-06-19T16:36:43;4.47;;;3.58;;
46597;SDS011;32318;48.858;8.252;2023-06-19T16:44:44;5.37;;;3.63;;
46597;SDS011;32318;48.858;8.252;2023-06-19T16:52:44;6.57;;;3.60;;
46597;SDS011;32318;48.858;8.252;2023-06-19T17:00:44;6.57;;;3.50;;
46597;SDS011;32318;48.858;8.252;2023-06-19T17:08:44;6.93;;;3.38;;
46597;SDS011;32318;48.858;8.252;2023-06-19T17:16:45;5.45;;;3.28;;
46597;SDS011;32318;48.858;8.252;2023-06-19T17:24:45;4.78;;;3.13;;
46597;SDS011;32318;48.858;8.252;2023-06-19T17:32:47;5.85;;;3.38;;
46597;SDS011;32318;48.858;8.252;2023-06-19T17:40:48;7.97;;;3.13;;
46597;SDS011;32318;48.858;8.252;2023-06-19T17:48:48;6.60;;;3.97;;
46597;SDS011;32318;48.858;8.252;2023-06-19T17:56:48;9.00;;;3.45;;
46597;SDS011;32318;48.858;8.252;2023-06-19T18:04:48;4.43;;;3.38;;
46597;SDS011;32318;48.858;8.252;2023-06-19T18:12:49;7.13;;;3.22;;
46597;SDS011;32318;48.858;8.252;2023-06-19T18:20:49;6.45;;;3.42;;
46597;SDS011;32318;48.858;8.252;2023-06-19T18:28:49;11.07;;;3.58;;
46597;SDS011;32318;48.858;8.252;2023-06-19T18:36:50;4.75;;;3.35;;
46597;SDS011;32318;48.858;8.252;2023-06-19T18:44:50;6.32;;;3.80;;
46597;SDS011;32318;48.858;8.252;2023-06-19T18:52:51;6.90;;;4.05;;
46597;SDS011;32318;48.858;8.252;2023-06-19T19:00:51;6.63;;;4.10;;
46597;SDS011;32318;48.858;8.252;2023-06-19T19:08:51;9.43;;;3.85;;
46597;SDS011;32318;48.858;8.252;2023-06-19T19:16:56;6.60;;;3.85;;
46597;SDS011;32318;48.858;8.252;2023-06-19T19:24:56;10.18;;;4.20;;
46597;SDS011;32318;48.858;8.252;2023-06-19T19:32:56;8.85;;;3.70;;
46597;SDS011;32318;48.858;8.252;2023-06-19T19:40:56;6.25;;;3.97;;
46597;SDS011;32318;48.858;8.252;2023-06-19T19:48:57;9.80;;;4.10;;
46597;SDS011;32318;48.858;8.252;2023-06-19T19:56:57;10.52;;;4.18;;
46597;SDS011;32318;48.858;8.252;2023-06-19T20:04:57;11.93;;;4.70;;
46597;SDS011;32318;48.858;8.252;2023-06-19T20:12:58;9.05;;;4.20;;
46597;SDS011;32318;48.858;8.252;2023-06-19T20:20:58;8.40;;;4.90;;
46597;SDS011;32318;48.858;8.252;2023-06-19T20:28:58;7.32;;;4.35;;
46597;SDS011;32318;48.858;8.252;2023-06-19T20:36:59;10.95;;;6.65;;
46597;SDS011;32318;48.858;8.252;2023-06-19T20:44:59;20.03;;;9.27;;
46597;SDS011;32318;48.858;8.252;2023-06-19T20:53:00;12.30;;;6.22;;
46597;SDS011;32318;48.858;8.252;2023-06-19T21:01:00;8.95;;;5.32;;
46597;SDS011;32318;48.858;8.252;2023-06-19T21:09:00;9.32;;;5.30;;
46597;SDS011;32318;48.858;8.252;2023-06-19T21:17:03;13.90;;;4.38;;
46597;SDS011;32318;48.858;8.252;2023-06-19T21:25:04;7.47;;;4.90;;
46597;SDS011;32318;48.858;8.252;2023-06-19T21:33:05;7.53;;;4.22;;
46597;SDS011;32318;48.858;8.252;2023-06-19T21:41:05;8.25;;;4.50;;
46597;SDS011;32318;48.858;8.252;2023-06-19T21:49:06;7.05;;;4.55;;
46597;SDS011;32318;48.858;8.252;2023-06-19T21:57:06;7.60;;;4.97;;
46597;SDS011;32318;48.858;8.252;2023-06-19T22:05:07;7.88;;;4.80;;
46597;SDS011;32318;48.858;8.252;2023-06-19T22:13:07;7.57;;;5.00;;
46597;SDS011;32318;48.858;8.252;2023-06-19T22:21:10;8.82;;;4.68;;
46597;SDS011;32318;48.858;8.252;2023-06-19T22:29:10;7.38;;;4.50;;
46597;SDS011;32318;48.858;8.252;2023-06-19T22:37:12;6.80;;;4.97;;
46597;SDS011;32318;48.858;8.252;2023-06-19T22:45:12;8.48;;;4.60;;
46597;SDS011;32318;48.858;8.252;2023-06-19T22:53:13;6.70;;;4.45;;
46597;SDS011;32318;48.858;8.252;2023-06-19T23:01:13;10.15;;;4.55;;
46597;SDS011;32318;48.858;8.252;2023-06-19T23:09:13;8.68;;;4.82;;
46597;SDS011;32318;48.858;8.252;2023-06-19T23:17:14;12.93;;;5.05;;
46597;SDS011;32318;48.858;8.252;2023-06-19T23:25:14;10.18;;;5.70;;
46597;SDS011;32318;48.858;8.252;2023-06-19T23:33:14;14.75;;;7.07;;
46597;SDS011;32318;48.858;8.252;2023-06-19T23:41:14;7.90;;;5.70;;
46597;SDS011;32318;48.858;8.252;2023-06-19T23:49:15;7.82;;;5.45;;
46597;SDS011;32318;48.858;8.252;2023-06-19T23:57:15;9.88;;;5.88;;
